createdAt,value
2022-08-12T00:00:44.253Z,52.26
2022-08-12T00:06:15.967Z,52.47
2022-08-12T00:11:47.964Z,52.99
2022-08-12T00:17:20.621Z,52.38
2022-08-12T00:22:58.621Z,52.08
2022-08-12T00:28:23.482Z,52.92
2022-08-12T00:33:55.099Z,53.18
2022-08-12T00:39:26.832Z,53.07
2022-08-12T00:44:58.404Z,52.97
2022-08-12T00:50:30.285Z,53.29
2022-08-12T00:56:01.795Z,53.11
2022-08-12T01:02:11.472Z,53.24
2022-08-12T01:07:05.517Z,53.18
2022-08-12T01:12:37.376Z,52.93
2022-08-12T01:18:09.225Z,52.91
2022-08-12T01:23:40.954Z,52.81
2022-08-12T01:29:12.694Z,53.00
2022-08-12T01:34:44.520Z,53.94
2022-08-12T01:40:31.595Z,55.21
2022-08-12T01:45:47.768Z,55.14
2022-08-12T01:51:24.450Z,55.83
2022-08-12T01:56:51.289Z,55.65
2022-08-12T02:02:23.042Z,55.64
2022-08-12T02:07:54.909Z,56.62
2022-08-12T02:13:43.663Z,56.73
2022-08-12T02:18:58.378Z,57.42
2022-08-12T02:24:30.167Z,57.04
2022-08-12T02:30:01.991Z,56.70
2022-08-12T02:35:33.621Z,56.19
2022-08-12T02:41:05.805Z,56.48
2022-08-12T02:46:37.403Z,55.97
2022-08-12T02:52:09.371Z,55.99
2022-08-12T02:57:41.153Z,56.35
2022-08-12T03:03:13.094Z,56.69
2022-08-12T03:08:49.171Z,57.13
2022-08-12T03:14:16.852Z,57.21
2022-08-12T03:20:09.378Z,56.93
2022-08-12T03:25:21.892Z,56.99
2022-08-12T03:30:56.653Z,56.73
2022-08-12T03:41:58.090Z,56.78
2022-08-12T03:47:29.359Z,56.90
2022-08-12T03:58:33.050Z,57.69
2022-08-12T04:15:08.066Z,57.25
2022-08-12T04:20:39.937Z,57.26
2022-08-12T04:26:11.731Z,57.54
2022-08-12T04:31:43.501Z,57.38
2022-08-12T04:37:15.062Z,57.27
2022-08-12T04:42:47.168Z,57.32
2022-08-12T04:48:18.720Z,56.73
2022-08-12T04:53:50.483Z,56.41
2022-08-12T04:59:22.259Z,55.58
2022-08-12T05:16:04.200Z,54.85
2022-08-12T05:21:31.258Z,54.66
2022-08-12T05:32:34.882Z,54.66
2022-08-12T05:38:06.644Z,54.45
2022-08-12T05:43:38.200Z,53.96
2022-08-12T05:49:10.009Z,50.52
2022-08-12T05:54:57.140Z,48.99
2022-08-12T06:00:13.430Z,43.05
2022-08-12T06:11:17.137Z,39.93
2022-08-12T06:16:49.336Z,40.03
2022-08-12T06:22:20.945Z,38.39
2022-08-12T06:28:05.862Z,38.16
2022-08-12T06:33:56.077Z,37.77
2022-08-12T06:38:56.297Z,37.81
2022-08-12T06:44:28.058Z,36.92
2022-08-12T06:50:00.013Z,35.72
2022-08-12T06:55:31.846Z,35.17
2022-08-12T07:06:35.479Z,35.19
2022-08-12T07:12:07.399Z,34.84
2022-08-12T07:17:39.142Z,33.41
2022-08-12T07:23:10.916Z,33.83
2022-08-12T07:28:42.797Z,33.50
2022-08-12T07:34:14.584Z,33.51
2022-08-12T07:39:50.127Z,32.99
2022-08-12T07:50:50.148Z,31.71
2022-08-12T08:01:53.801Z,31.72
2022-08-12T08:12:57.361Z,31.90
2022-08-12T08:18:29.098Z,32.08
2022-08-12T08:24:05.415Z,31.97
2022-08-12T08:29:35.135Z,31.40
2022-08-12T08:35:06.965Z,31.82
2022-08-12T08:40:38.961Z,31.75
2022-08-12T08:46:10.637Z,31.84
2022-08-12T08:51:42.623Z,32.48
2022-08-12T08:57:14.258Z,33.13
2022-08-12T09:02:49.018Z,32.78
2022-08-12T09:08:26.696Z,33.17
2022-08-12T09:24:55.485Z,32.22
2022-08-12T09:30:41.786Z,31.87
2022-08-12T09:36:04.689Z,32.46
2022-08-12T09:47:00.471Z,33.54
2022-08-12T09:52:32.293Z,34.49
2022-08-12T09:58:44.870Z,34.99
2022-08-12T10:03:35.859Z,35.55
2022-08-12T10:09:08.220Z,36.44
2022-08-12T10:14:39.191Z,36.72
2022-08-12T10:20:12.014Z,36.87
2022-08-12T10:26:36.752Z,35.82
2022-08-12T10:31:16.042Z,36.14
2022-08-12T10:36:46.528Z,36.35
2022-08-12T10:42:29.070Z,36.71
2022-08-12T10:48:07.360Z,37.07
2022-08-12T10:53:21.965Z,37.03
2022-08-12T10:58:53.976Z,36.97
2022-08-12T11:04:45.188Z,36.81
2022-08-12T11:10:01.447Z,37.20
2022-08-12T11:15:33.569Z,37.39
2022-08-12T11:21:05.689Z,36.26
2022-08-12T11:26:34.328Z,35.59
2022-08-12T11:32:05.821Z,35.35
2022-08-12T11:37:59.177Z,36.49
2022-08-12T11:43:19.237Z,36.23
2022-08-12T11:54:14.901Z,34.22
2022-08-12T12:02:02.924Z,34.50
2022-08-12T12:05:16.970Z,34.87
2022-08-12T12:08:36.222Z,0.00
2022-08-12T12:13:01.651Z,34.23
2022-08-12T12:18:33.756Z,33.37
2022-08-12T12:24:05.551Z,33.21
2022-08-12T12:30:13.473Z,32.92
2022-08-12T12:36:05.418Z,32.84
2022-08-12T12:40:40.955Z,33.20
2022-08-12T12:46:12.633Z,32.87
2022-08-12T12:52:06.774Z,33.01
2022-08-12T12:57:17.028Z,33.10
2022-08-12T13:02:52.971Z,33.14
2022-08-12T13:08:20.617Z,33.00
2022-08-12T13:14:09.750Z,33.25
2022-08-12T13:19:25.493Z,33.24
2022-08-12T13:24:57.180Z,33.33
2022-08-12T13:30:28.413Z,33.27
2022-08-12T13:36:06.207Z,33.60
2022-08-12T13:41:32.495Z,33.08
2022-08-12T13:47:18.532Z,32.85
2022-08-12T13:52:36.414Z,32.70
2022-08-12T13:58:12.678Z,32.84
2022-08-12T14:03:49.996Z,32.59
2022-08-12T14:09:17.318Z,31.95
2022-08-12T14:14:43.616Z,31.84
2022-08-12T14:20:15.170Z,31.93
2022-08-12T14:25:47.006Z,31.88
2022-08-12T14:31:18.918Z,31.23
2022-08-12T14:36:50.879Z,31.78
2022-08-12T14:42:22.720Z,31.53
2022-08-12T14:47:58.568Z,31.25
2022-08-12T14:59:00.089Z,31.56
2022-08-12T15:04:29.361Z,31.72
2022-08-12T15:10:01.702Z,31.67
2022-08-12T15:15:36.215Z,31.99
2022-08-12T15:21:11.483Z,31.52
2022-08-12T15:26:40.815Z,31.53
2022-08-12T15:32:15.711Z,31.70
2022-08-12T15:37:59.028Z,31.55
2022-08-12T15:45:34.221Z,0.00
2022-08-12T15:51:06.090Z,31.63
2022-08-12T15:56:38.044Z,32.22
2022-08-12T16:02:09.941Z,33.30
2022-08-12T16:07:41.732Z,33.83
2022-08-12T16:13:13.570Z,34.50
2022-08-12T16:18:45.291Z,34.61
2022-08-12T16:24:16.770Z,34.30
2022-08-12T16:29:53.366Z,34.70
2022-08-12T16:35:20.126Z,35.89
2022-08-12T16:40:52.043Z,36.51
2022-08-12T16:46:31.410Z,37.28
2022-08-12T16:51:55.902Z,38.16
2022-08-12T16:57:34.961Z,40.11
2022-08-12T17:02:59.844Z,40.68
2022-08-12T17:08:31.453Z,40.99
2022-08-12T17:14:03.381Z,40.44
2022-08-12T17:20:29.143Z,39.85
2022-08-12T17:30:39.036Z,38.94
2022-08-12T17:36:10.908Z,39.18
2022-08-12T17:41:55.922Z,40.18
2022-08-12T17:47:14.624Z,40.34
2022-08-12T17:52:50.198Z,40.99
2022-08-12T18:04:04.397Z,41.64
2022-08-12T18:09:24.602Z,41.63
2022-08-12T18:14:55.168Z,41.90
2022-08-12T18:20:26.964Z,42.19
2022-08-12T18:26:14.520Z,42.64
2022-08-12T18:31:44.568Z,42.76
2022-08-12T18:37:26.621Z,43.17
2022-08-12T18:42:33.467Z,43.57
2022-08-12T18:54:06.648Z,44.48
2022-08-12T18:59:10.040Z,45.49
2022-08-12T19:04:40.670Z,45.80
2022-08-12T19:10:12.329Z,46.73
2022-08-12T19:15:44.142Z,47.21
2022-08-12T19:21:20.298Z,47.60
2022-08-12T19:26:47.837Z,47.84
2022-08-12T19:32:23.235Z,47.78
2022-08-12T19:38:03.808Z,48.39
2022-08-12T19:43:23.330Z,48.70
2022-08-12T19:48:58.878Z,49.02
2022-08-12T19:54:30.187Z,48.96
2022-08-12T20:00:04.245Z,49.19
2022-08-12T20:06:06.684Z,49.74
2022-08-12T20:12:13.579Z,50.01
2022-08-12T20:16:52.302Z,50.42
2022-08-12T20:22:05.225Z,50.24
2022-08-12T20:28:02.491Z,50.94
2022-08-12T20:33:17.529Z,51.34
2022-08-12T20:38:40.504Z,51.30
2022-08-12T20:49:44.217Z,52.06
2022-08-12T20:55:19.478Z,52.52
2022-08-12T21:00:47.734Z,52.30
2022-08-12T21:06:19.485Z,52.13
2022-08-12T21:11:51.325Z,52.59
2022-08-12T21:14:16.418Z,0.00
2022-08-12T21:19:51.999Z,52.66
2022-08-12T21:25:17.711Z,52.97
2022-08-12T21:31:11.694Z,53.49
2022-08-12T21:36:22.545Z,53.34
2022-08-12T21:41:53.044Z,53.98
2022-08-12T21:47:24.528Z,54.18
2022-08-12T21:52:56.313Z,54.39
2022-08-12T21:58:28.138Z,54.69
2022-08-12T22:04:04.065Z,55.24
2022-08-12T22:09:42.550Z,55.37
2022-08-12T22:15:04.386Z,55.31
2022-08-12T22:20:36.297Z,55.45
2022-08-12T22:26:07.787Z,55.88
2022-08-12T22:31:39.916Z,55.68
2022-08-12T22:37:20.328Z,56.62
2022-08-12T22:48:20.110Z,56.80
2022-08-12T22:53:46.822Z,56.93
2022-08-12T22:59:18.749Z,58.17
2022-08-12T23:04:50.303Z,57.91
2022-08-12T23:10:21.526Z,57.53
2022-08-12T23:15:55.267Z,57.56
2022-08-12T23:21:24.889Z,57.48
2022-08-12T23:26:57.101Z,58.19
2022-08-12T23:32:53.948Z,59.08
2022-08-12T23:38:00.290Z,60.01
2022-08-12T23:43:39.415Z,60.24
2022-08-12T23:54:44.063Z,60.19
